Terminal Aerodrome Forecast
Issued by NWS

Home | Current Version | Previous Version | Text Only | Print | Product List | Glossary On
Versions: 1 2 3 4 5 6 7 8 9 10 11 12 13 14 15 16 17 18 19
566
FTUS41 KBTV 191127
TAFMPV
TAF
KMPV 191127Z 1912/2012 VRB03KT P6SM BKN025
     FM191400 00000KT P6SM BKN035
     FM192000 33007KT P6SM VCSH OVC025
     FM200300 31007KT P6SM VCSH OVC015
     FM201100 31010KT P6SM VCSH OVC020=

USA.gov is the U.S. government's official web portal to all federal, state and local government web resources and services.